Time;durP1;ratioP1;P1;durP2;ratioP2;P2;SDS_P1;SDS_P2;PMS_P1;PMS_P2;Temp;Humidity;BMP_temperature;BMP_pressure;BME280_temperature;BME280_humidity;BME280_pressure;Samples;Min_cycle;Max_cycle;Signal;HPM_P1;HPM_P2
2021/05/14 00:01:38;;;;;;;0.50;0.50;;;;;;;;;;4974112;28;20031;-76
2021/05/14 00:04:03;;;;;;;0.40;0.40;;;;;;;;;;5000739;28;20030;-75
2021/05/14 00:06:28;;;;;;;0.60;0.60;;;;;;;;;;4980666;28;20080;-76
2021/05/14 00:08:54;;;;;;;0.50;0.50;;;;;;;;;;4987045;28;20022;-76
2021/05/14 00:11:21;;;;;;;0.70;0.70;;;;;;;;;;4981311;28;20045;-74
2021/05/14 00:13:46;;;;;;;;;;;;;;;;;;4985946;28;20053;-75
2021/05/14 00:16:12;;;;;;;0.68;0.68;;;;;;;;;;4984630;28;19971;-76
2021/05/14 00:18:37;;;;;;;0.50;0.50;;;;;;;;;;5002504;28;20053;-76
2021/05/14 00:21:02;;;;;;;0.60;0.60;;;;;;;;;;4986127;28;20030;-76
2021/05/14 00:23:28;;;;;;;0.60;0.60;;;;;;;;;;4988485;28;20033;-75
2021/05/14 00:25:53;;;;;;;0.60;0.60;;;;;;;;;;4987747;28;20025;-75
2021/05/14 00:28:18;;;;;;;0.60;0.60;;;;;;;;;;4980990;28;20019;-76
2021/05/14 00:30:43;;;;;;;0.68;0.68;;;;;;;;;;4985633;28;20113;-76
2021/05/14 00:33:09;;;;;;;0.70;0.70;;;;;;;;;;4993454;28;20030;-75
2021/05/14 00:35:34;;;;;;;0.60;0.60;;;;;;;;;;4970785;28;20022;-76
2021/05/14 00:37:59;;;;;;;0.60;0.60;;;;;;;;;;4984467;28;20030;-76
2021/05/14 00:40:24;;;;;;;0.50;0.50;;;;;;;;;;4974603;28;20102;-76
2021/05/14 00:42:50;;;;;;;0.50;0.50;;;;;;;;;;4988252;28;20029;-76
2021/05/14 00:45:15;;;;;;;0.60;0.60;;;;;;;;;;4983234;28;20617;-77
2021/05/14 00:47:40;;;;;;;0.50;0.50;;;;;;;;;;4987399;28;20089;-76
2021/05/14 00:50:06;;;;;;;0.50;0.50;;;;;;;;;;4973251;28;20033;-76
2021/05/14 00:52:32;;;;;;;0.60;0.60;;;;;;;;;;4968972;28;20027;-77
2021/05/14 00:54:57;;;;;;;0.50;0.50;;;;;;;;;;4970769;28;20038;-77
2021/05/14 00:57:23;;;;;;;0.50;0.50;;;;;;;;;;4987343;28;20018;-77
2021/05/14 00:59:48;;;;;;;0.50;0.50;;;;;;;;;;4983851;28;20081;-76
2021/05/14 01:02:14;;;;;;;0.50;0.50;;;;;;;;;;4979696;28;20073;-75
2021/05/14 01:04:40;;;;;;;0.50;0.50;;;;;;;;;;4986218;28;20700;-76
2021/05/14 01:07:06;;;;;;;0.50;0.50;;;;;;;;;;5003341;28;20481;-76
2021/05/14 01:09:32;;;;;;;0.50;0.50;;;;;;;;;;4987385;28;20022;-76
2021/05/14 01:11:57;;;;;;;0.50;0.50;;;;;;;;;;4985213;28;20559;-76
2021/05/14 01:14:22;;;;;;;0.50;0.50;;;;;;;;;;4971423;28;20062;-75
2021/05/14 01:16:47;;;;;;;0.60;0.60;;;;;;;;;;4975177;28;20419;-74
2021/05/14 01:19:13;;;;;;;0.52;0.52;;;;;;;;;;4988857;28;20431;-77
2021/05/14 01:21:39;;;;;;;0.50;0.50;;;;;;;;;;4991393;28;20026;-77
2021/05/14 01:24:04;;;;;;;0.50;0.50;;;;;;;;;;4985563;28;20666;-76
2021/05/14 01:26:30;;;;;;;0.50;0.50;;;;;;;;;;4987876;28;20027;-77
2021/05/14 01:28:57;;;;;;;0.50;0.50;;;;;;;;;;4984692;28;20481;-76
2021/05/14 01:31:22;;;;;;;;;;;;;;;;;;4978331;28;20027;-75
2021/05/14 01:33:48;;;;;;;0.50;0.50;;;;;;;;;;5009176;28;19910;-76
2021/05/14 01:36:13;;;;;;;0.60;0.60;;;;;;;;;;4976998;28;20424;-76
2021/05/14 01:38:38;;;;;;;0.50;0.50;;;;;;;;;;4982785;28;20581;-77
2021/05/14 01:41:04;;;;;;;0.50;0.50;;;;;;;;;;4992164;28;20033;-77
2021/05/14 01:43:32;;;;;;;0.57;0.57;;;;;;;;;;4988542;28;20022;-76
2021/05/14 01:45:57;;;;;;;;;;;;;;;;;;4989692;28;20027;-76
2021/05/14 01:48:22;;;;;;;0.50;0.50;;;;;;;;;;4990332;28;20012;-75
2021/05/14 01:50:47;;;;;;;0.50;0.50;;;;;;;;;;4990059;28;20042;-77
2021/05/14 01:53:13;;;;;;;0.50;0.50;;;;;;;;;;4972669;28;20109;-76
2021/05/14 01:55:38;;;;;;;0.50;0.50;;;;;;;;;;4972785;28;20046;-77
2021/05/14 01:58:04;;;;;;;0.70;0.70;;;;;;;;;;4982589;28;20041;-77
2021/05/14 02:00:29;;;;;;;0.55;0.55;;;;;;;;;;4992543;28;20030;-76
2021/05/14 02:02:55;;;;;;;0.57;0.57;;;;;;;;;;4978311;28;20030;-77
2021/05/14 02:05:20;;;;;;;0.63;0.63;;;;;;;;;;4990212;28;20022;-77
2021/05/14 02:07:45;;;;;;;0.60;0.60;;;;;;;;;;4990586;28;20034;-76
2021/05/14 02:10:11;;;;;;;0.60;0.60;;;;;;;;;;4990504;28;20029;-75
2021/05/14 02:12:36;;;;;;;0.55;0.55;;;;;;;;;;4980821;28;20148;-77
2021/05/14 02:15:02;;;;;;;0.50;0.50;;;;;;;;;;4982755;28;20040;-77
2021/05/14 02:17:27;;;;;;;0.55;0.55;;;;;;;;;;4979356;28;20026;-76
2021/05/14 02:19:54;;;;;;;0.60;0.60;;;;;;;;;;4988416;28;20109;-76
2021/05/14 02:22:19;;;;;;;0.50;0.50;;;;;;;;;;5003463;28;20069;-75
2021/05/14 02:24:44;;;;;;;0.50;0.50;;;;;;;;;;4987203;28;20116;-76
2021/05/14 02:27:10;;;;;;;0.60;0.60;;;;;;;;;;4988616;28;20022;-74
2021/05/14 02:29:35;;;;;;;0.60;0.60;;;;;;;;;;4984884;28;20044;-77
2021/05/14 02:32:02;;;;;;;0.60;0.60;;;;;;;;;;4983139;28;20451;-76
2021/05/14 02:34:29;;;;;;;0.60;0.60;;;;;;;;;;4986912;28;20043;-76
2021/05/14 02:36:55;;;;;;;;;;;;;;;;;;4993509;28;20300;-75
2021/05/14 02:39:20;;;;;;;0.50;0.50;;;;;;;;;;5003781;28;19961;-75
2021/05/14 02:41:45;;;;;;;0.60;0.60;;;;;;;;;;4978242;28;20113;-76
2021/05/14 02:44:10;;;;;;;0.50;0.50;;;;;;;;;;5003564;28;21837;-75
2021/05/14 02:46:36;;;;;;;0.60;0.60;;;;;;;;;;4995027;28;20035;-75
2021/05/14 02:49:01;;;;;;;0.55;0.55;;;;;;;;;;4969718;28;20023;-76
2021/05/14 02:51:26;;;;;;;0.60;0.60;;;;;;;;;;4999089;28;20092;-74
2021/05/14 02:53:52;;;;;;;0.70;0.70;;;;;;;;;;4988517;28;20109;-76
2021/05/14 02:56:17;;;;;;;0.60;0.60;;;;;;;;;;4987293;28;20458;-76
2021/05/14 02:58:44;;;;;;;0.60;0.60;;;;;;;;;;4974425;28;20030;-75
2021/05/14 03:01:10;;;;;;;0.60;0.60;;;;;;;;;;4980269;28;20372;-76
2021/05/14 03:03:35;;;;;;;0.60;0.60;;;;;;;;;;4973303;28;20030;-75
2021/05/14 03:06:00;;;;;;;0.60;0.60;;;;;;;;;;4988944;28;20022;-76
2021/05/14 03:08:25;;;;;;;0.60;0.60;;;;;;;;;;4989063;28;20271;-75
2021/05/14 03:10:51;;;;;;;0.60;0.60;;;;;;;;;;4975231;28;20054;-75
2021/05/14 03:13:16;;;;;;;0.60;0.60;;;;;;;;;;4968843;28;20034;-76
2021/05/14 03:15:41;;;;;;;0.63;0.63;;;;;;;;;;4968502;28;20709;-75
2021/05/14 03:18:07;;;;;;;0.60;0.60;;;;;;;;;;4974122;28;20026;-75
2021/05/14 03:20:32;;;;;;;0.60;0.60;;;;;;;;;;4988687;28;20026;-76
2021/05/14 03:22:57;;;;;;;0.60;0.60;;;;;;;;;;4987564;28;20161;-75
2021/05/14 03:25:24;;;;;;;0.65;0.65;;;;;;;;;;4996284;28;20606;-75
2021/05/14 03:27:49;;;;;;;0.70;0.70;;;;;;;;;;4981350;28;20015;-74
2021/05/14 03:30:14;;;;;;;0.60;0.60;;;;;;;;;;4984152;28;21862;-76
2021/05/14 03:32:39;;;;;;;0.60;0.60;;;;;;;;;;4968764;28;20138;-75
2021/05/14 03:35:05;;;;;;;0.68;0.68;;;;;;;;;;5003971;28;20532;-75
2021/05/14 03:37:30;;;;;;;0.60;0.60;;;;;;;;;;4987173;28;20026;-76
2021/05/14 03:40:03;;;;;;;0.70;0.70;;;;;;;;;;4988150;28;20515;-76
2021/05/14 03:42:28;;;;;;;0.63;0.63;;;;;;;;;;4983525;28;20033;-76
2021/05/14 03:44:56;;;;;;;0.70;0.70;;;;;;;;;;4986916;28;20026;-76
2021/05/14 03:47:24;;;;;;;0.70;0.70;;;;;;;;;;4983833;28;20018;-77
2021/05/14 03:49:50;;;;;;;0.68;0.68;;;;;;;;;;4987674;28;20018;-76
2021/05/14 03:52:15;;;;;;;0.60;0.60;;;;;;;;;;4987292;28;20030;-75
2021/05/14 03:54:41;;;;;;;0.63;0.63;;;;;;;;;;4982208;28;20069;-75
2021/05/14 03:57:07;;;;;;;0.65;0.65;;;;;;;;;;5003394;28;20056;-78
2021/05/14 03:59:32;;;;;;;0.70;0.70;;;;;;;;;;4987582;28;20030;-75
2021/05/14 04:01:58;;;;;;;0.70;0.70;;;;;;;;;;4972752;28;20218;-75
2021/05/14 04:04:24;;;;;;;0.65;0.65;;;;;;;;;;4970189;28;20068;-75
2021/05/14 04:06:49;;;;;;;0.70;0.70;;;;;;;;;;4987183;28;20034;-75
2021/05/14 04:09:19;;;;;;;0.70;0.70;;;;;;;;;;5002591;28;20018;-75
2021/05/14 04:12:04;;;;;;;0.70;0.70;;;;;;;;;;4987751;28;20116;-75
2021/05/14 04:14:30;;;;;;;0.70;0.70;;;;;;;;;;4986235;28;20289;-75
2021/05/14 04:16:58;;;;;;;0.70;0.70;;;;;;;;;;4987405;28;20404;-76
2021/05/14 04:19:24;;;;;;;0.60;0.60;;;;;;;;;;4986422;28;20030;-74
2021/05/14 04:21:51;;;;;;;0.70;0.70;;;;;;;;;;4980750;28;20091;-75
2021/05/14 04:24:17;;;;;;;0.70;0.70;;;;;;;;;;4986475;28;20080;-76
2021/05/14 04:26:42;;;;;;;0.60;0.60;;;;;;;;;;4988392;28;20030;-76
2021/05/14 04:29:08;;;;;;;0.70;0.70;;;;;;;;;;4993331;28;20033;-76
2021/05/14 04:31:33;;;;;;;0.70;0.70;;;;;;;;;;4980125;28;20026;-75
2021/05/14 04:33:58;;;;;;;0.70;0.70;;;;;;;;;;5011424;28;20109;-76
2021/05/14 04:36:23;;;;;;;0.70;0.70;;;;;;;;;;4985373;28;20032;-77
2021/05/14 04:38:49;;;;;;;0.60;0.60;;;;;;;;;;4988147;28;20033;-75
2021/05/14 04:41:14;;;;;;;0.63;0.63;;;;;;;;;;4981466;28;20106;-76
2021/05/14 04:43:39;;;;;;;0.70;0.70;;;;;;;;;;4986134;28;20555;-76
2021/05/14 04:46:04;;;;;;;0.60;0.60;;;;;;;;;;4987844;28;20384;-77
2021/05/14 04:48:30;;;;;;;0.60;0.60;;;;;;;;;;4986131;28;20098;-77
2021/05/14 04:50:55;;;;;;;0.60;0.60;;;;;;;;;;4975514;28;20010;-76
2021/05/14 04:53:27;;;;;;;0.60;0.60;;;;;;;;;;4982153;28;20389;-76
2021/05/14 04:55:52;;;;;;;0.50;0.50;;;;;;;;;;4966657;28;20501;-76
2021/05/14 04:58:18;;;;;;;0.55;0.55;;;;;;;;;;4980835;28;20117;-75
2021/05/14 05:00:43;;;;;;;0.60;0.60;;;;;;;;;;4985449;28;20137;-76
2021/05/14 05:03:08;;;;;;;0.70;0.70;;;;;;;;;;4980464;28;20038;-76
2021/05/14 05:05:35;;;;;;;0.70;0.70;;;;;;;;;;4988024;28;20019;-75
2021/05/14 05:08:00;;;;;;;0.60;0.60;;;;;;;;;;4995877;28;20077;-76
2021/05/14 05:10:25;;;;;;;0.70;0.70;;;;;;;;;;4977774;28;20473;-75
2021/05/14 05:12:51;;;;;;;0.60;0.60;;;;;;;;;;4984447;28;20493;-76
2021/05/14 05:15:17;;;;;;;0.65;0.65;;;;;;;;;;4980832;28;20035;-75
2021/05/14 05:17:42;;;;;;;0.60;0.60;;;;;;;;;;4971651;28;20031;-77
2021/05/14 05:20:08;;;;;;;0.60;0.60;;;;;;;;;;4974254;28;20556;-76
2021/05/14 05:22:33;;;;;;;0.60;0.60;;;;;;;;;;4970230;28;20260;-76
2021/05/14 05:24:58;;;;;;;0.70;0.70;;;;;;;;;;4986866;28;20245;-77
2021/05/14 05:27:24;;;;;;;0.70;0.70;;;;;;;;;;4981627;28;20054;-75
2021/05/14 05:29:51;;;;;;;0.63;0.63;;;;;;;;;;5007166;28;20030;-77
2021/05/14 05:32:17;;;;;;;;;;;;;;;;;;4989942;28;20430;-76
2021/05/14 05:34:42;;;;;;;0.60;0.60;;;;;;;;;;5004956;28;20032;-77
2021/05/14 05:37:07;;;;;;;0.60;0.60;;;;;;;;;;5005824;28;20642;-75
2021/05/14 05:39:32;;;;;;;0.60;0.60;;;;;;;;;;4990539;28;20022;-75
2021/05/14 05:41:58;;;;;;;0.50;0.50;;;;;;;;;;4995120;28;20125;-74
2021/05/14 05:44:23;;;;;;;0.60;0.60;;;;;;;;;;4989448;28;20053;-75
2021/05/14 05:46:49;;;;;;;0.60;0.60;;;;;;;;;;4991455;28;20498;-75
2021/05/14 05:49:14;;;;;;;0.60;0.60;;;;;;;;;;5005844;28;20030;-77
2021/05/14 05:51:39;;;;;;;0.60;0.60;;;;;;;;;;4990526;28;20053;-76
2021/05/14 05:54:05;;;;;;;0.60;0.60;;;;;;;;;;4990878;28;20058;-74
2021/05/14 05:56:33;;;;;;;0.60;0.60;;;;;;;;;;4990605;28;20026;-74
2021/05/14 05:58:58;;;;;;;0.52;0.52;;;;;;;;;;4989015;28;20026;-76
2021/05/14 06:01:24;;;;;;;0.52;0.52;;;;;;;;;;4993964;28;20049;-76
2021/05/14 06:03:49;;;;;;;0.50;0.50;;;;;;;;;;4994308;28;20101;-73
2021/05/14 06:06:14;;;;;;;0.60;0.60;;;;;;;;;;4989232;28;20045;-73
2021/05/14 06:08:40;;;;;;;0.60;0.60;;;;;;;;;;4990476;28;20506;-73
2021/05/14 06:11:05;;;;;;;0.60;0.60;;;;;;;;;;4990454;28;20049;-73
2021/05/14 06:13:33;;;;;;;0.85;0.70;;;;;;;;;;4983019;28;20022;-72
2021/05/14 06:16:00;;;;;;;0.60;0.60;;;;;;;;;;4989113;28;20161;-77
2021/05/14 06:18:29;;;;;;;0.50;0.50;;;;;;;;;;4985447;28;20030;-76
2021/05/14 06:20:54;;;;;;;0.73;0.60;;;;;;;;;;4985046;28;20499;-74
2021/05/14 06:23:19;;;;;;;0.50;0.50;;;;;;;;;;4984274;28;20022;-76
2021/05/14 06:25:44;;;;;;;0.50;0.50;;;;;;;;;;5003437;28;20476;-76
2021/05/14 06:28:16;;;;;;;0.60;0.60;;;;;;;;;;4987786;28;20022;-77
2021/05/14 06:30:41;;;;;;;0.40;0.40;;;;;;;;;;4989031;28;20114;-75
2021/05/14 06:33:06;;;;;;;0.50;0.50;;;;;;;;;;4989581;28;20426;-77
2021/05/14 06:35:33;;;;;;;0.40;0.40;;;;;;;;;;4989311;28;20022;-66
2021/05/14 06:37:58;;;;;;;0.50;0.50;;;;;;;;;;4991896;28;20283;-67
2021/05/14 06:40:26;;;;;;;0.40;0.40;;;;;;;;;;4996097;28;20048;-74
2021/05/14 06:42:51;;;;;;;0.50;0.50;;;;;;;;;;4993823;28;20034;-75
2021/05/14 06:45:19;;;;;;;0.47;0.47;;;;;;;;;;4987400;28;20039;-75
2021/05/14 06:47:44;;;;;;;0.40;0.40;;;;;;;;;;4996507;28;20227;-74
2021/05/14 06:50:10;;;;;;;0.40;0.40;;;;;;;;;;4988500;28;20025;-75
2021/05/14 06:52:35;;;;;;;0.43;0.43;;;;;;;;;;5002794;28;20032;-74
2021/05/14 06:55:05;;;;;;;0.40;0.40;;;;;;;;;;5002571;28;20030;-75
2021/05/14 06:57:30;;;;;;;0.40;0.40;;;;;;;;;;5003049;28;20014;-76
2021/05/14 06:59:56;;;;;;;0.40;0.40;;;;;;;;;;5005418;28;20022;-78
2021/05/14 07:02:21;;;;;;;0.40;0.40;;;;;;;;;;5007730;28;20022;-76
2021/05/14 07:04:46;;;;;;;0.32;0.32;;;;;;;;;;5024253;28;20027;-77
2021/05/14 07:07:12;;;;;;;0.40;0.40;;;;;;;;;;5008276;28;20026;-74
2021/05/14 07:09:40;;;;;;;0.40;0.40;;;;;;;;;;5013425;28;20030;-78
2021/05/14 07:12:05;;;;;;;0.40;0.40;;;;;;;;;;5004547;28;20400;-75
2021/05/14 07:14:30;;;;;;;0.38;0.38;;;;;;;;;;5005512;28;20073;-76
2021/05/14 07:16:56;;;;;;;0.45;0.45;;;;;;;;;;5008968;28;20085;-76
2021/05/14 07:19:21;;;;;;;0.45;0.40;;;;;;;;;;5005560;28;20034;-76
2021/05/14 07:21:47;;;;;;;0.35;0.35;;;;;;;;;;4992909;28;20587;-73
2021/05/14 07:24:12;;;;;;;0.32;0.32;;;;;;;;;;4985965;28;20417;-76
2021/05/14 07:26:37;;;;;;;0.30;0.30;;;;;;;;;;5000340;28;20022;-75
2021/05/14 07:29:04;;;;;;;0.40;0.40;;;;;;;;;;4987342;28;20117;-74
2021/05/14 07:31:30;;;;;;;0.50;0.50;;;;;;;;;;4986832;28;20032;-75
2021/05/14 07:33:55;;;;;;;0.40;0.40;;;;;;;;;;4985694;28;20030;-74
2021/05/14 07:36:21;;;;;;;0.43;0.40;;;;;;;;;;4992162;28;20036;-75
2021/05/14 07:38:48;;;;;;;0.40;0.40;;;;;;;;;;4986570;28;20022;-73
2021/05/14 07:41:14;;;;;;;0.50;0.50;;;;;;;;;;4986682;28;20121;-73
2021/05/14 07:43:39;;;;;;;0.30;0.30;;;;;;;;;;5010374;28;20680;-74
2021/05/14 07:46:04;;;;;;;0.40;0.40;;;;;;;;;;4987357;28;20018;-77
2021/05/14 07:48:30;;;;;;;0.50;0.50;;;;;;;;;;4989934;28;20403;-77
2021/05/14 07:50:55;;;;;;;0.40;0.40;;;;;;;;;;4989658;28;20030;-76
2021/05/14 07:53:21;;;;;;;0.68;0.50;;;;;;;;;;4997851;28;20325;-77
2021/05/14 07:55:46;;;;;;;0.55;0.50;;;;;;;;;;5003676;28;20372;-76
2021/05/14 07:58:12;;;;;;;0.40;0.40;;;;;;;;;;5003431;28;20041;-73
2021/05/14 08:00:39;;;;;;;0.50;0.50;;;;;;;;;;4987539;28;20468;-74
2021/05/14 08:03:04;;;;;;;0.40;0.40;;;;;;;;;;4996133;28;20034;-77
2021/05/14 08:05:32;;;;;;;0.30;0.30;;;;;;;;;;4989384;28;20033;-79
2021/05/14 08:07:59;;;;;;;0.40;0.40;;;;;;;;;;4989936;28;20066;-77
2021/05/14 08:10:25;;;;;;;0.40;0.40;;;;;;;;;;4989378;28;20491;-76
2021/05/14 08:12:50;;;;;;;0.40;0.40;;;;;;;;;;4994376;28;20084;-76
2021/05/14 08:15:15;;;;;;;0.40;0.40;;;;;;;;;;5006069;28;20026;-77
2021/05/14 08:17:40;;;;;;;0.35;0.35;;;;;;;;;;4992447;28;20272;-78
2021/05/14 08:20:07;;;;;;;0.40;0.40;;;;;;;;;;4997336;28;20030;-78
2021/05/14 08:22:33;;;;;;;0.30;0.30;;;;;;;;;;5009716;28;20102;-78
2021/05/14 08:24:58;;;;;;;0.30;0.30;;;;;;;;;;4991494;28;20488;-77
2021/05/14 08:27:23;;;;;;;0.30;0.30;;;;;;;;;;4992748;28;20033;-79
2021/05/14 08:29:49;;;;;;;0.38;0.38;;;;;;;;;;4991545;28;20500;-74
2021/05/14 08:32:14;;;;;;;0.30;0.30;;;;;;;;;;4991097;28;20065;-77
2021/05/14 08:34:39;;;;;;;0.40;0.40;;;;;;;;;;4990010;28;20038;-78
2021/05/14 08:37:04;;;;;;;0.30;0.30;;;;;;;;;;4987549;28;20489;-76
2021/05/14 08:39:30;;;;;;;0.30;0.30;;;;;;;;;;4990638;28;21611;-77
2021/05/14 08:41:55;;;;;;;1.45;0.35;;;;;;;;;;4984646;28;20030;-77
2021/05/14 08:44:20;;;;;;;0.40;0.40;;;;;;;;;;4991654;28;20408;-77
2021/05/14 08:46:46;;;;;;;0.40;0.40;;;;;;;;;;5005210;28;20207;-76
2021/05/14 08:49:11;;;;;;;0.43;0.40;;;;;;;;;;4984679;28;20027;-73
2021/05/14 08:51:36;;;;;;;0.40;0.40;;;;;;;;;;4990269;28;20026;-72
2021/05/14 08:54:05;;;;;;;0.40;0.40;;;;;;;;;;4987073;28;20062;-72
2021/05/14 08:56:33;;;;;;;0.30;0.30;;;;;;;;;;4983982;28;20204;-72
2021/05/14 08:58:58;;;;;;;0.20;0.20;;;;;;;;;;4997185;28;20074;-72
2021/05/14 09:01:25;;;;;;;0.30;0.30;;;;;;;;;;4987966;28;20483;-71
2021/05/14 09:04:02;;;;;;;0.28;0.28;;;;;;;;;;4995551;28;20022;-70
2021/05/14 09:06:28;;;;;;;0.30;0.30;;;;;;;;;;4987491;28;20350;-77
2021/05/14 09:08:57;;;;;;;0.30;0.30;;;;;;;;;;4988036;28;20026;-74
2021/05/14 09:11:35;;;;;;;0.30;0.30;;;;;;;;;;4996674;28;20611;-78
2021/05/14 09:14:01;;;;;;;0.50;0.50;;;;;;;;;;4998449;28;20160;-78
2021/05/14 09:16:39;;;;;;;0.30;0.30;;;;;;;;;;4988808;28;20014;-78
2021/05/14 09:19:04;;;;;;;0.40;0.40;;;;;;;;;;4984708;28;20030;-78
2021/05/14 09:21:30;;;;;;;0.30;0.30;;;;;;;;;;5000441;28;20409;-77
2021/05/14 09:23:55;;;;;;;0.30;0.30;;;;;;;;;;4987218;28;20125;-77
2021/05/14 09:26:26;;;;;;;0.38;0.38;;;;;;;;;;4983953;28;20074;-78
2021/05/14 09:28:52;;;;;;;0.30;0.30;;;;;;;;;;4997630;28;20097;-77
2021/05/14 09:31:18;;;;;;;0.20;0.20;;;;;;;;;;4981677;28;20396;-79
2021/05/14 09:33:43;;;;;;;0.35;0.35;;;;;;;;;;5003309;28;20158;-78
2021/05/14 09:36:10;;;;;;;0.35;0.35;;;;;;;;;;4989347;28;20638;-77
2021/05/14 09:38:43;;;;;;;0.40;0.40;;;;;;;;;;4991431;28;20011;-80
2021/05/14 09:41:27;;;;;;;0.32;0.32;;;;;;;;;;4987508;28;20041;-78
2021/05/14 09:43:53;;;;;;;0.30;0.30;;;;;;;;;;4988325;28;20458;-78
2021/05/14 09:46:28;;;;;;;0.30;0.30;;;;;;;;;;4990091;28;20031;-78
2021/05/14 09:48:54;;;;;;;0.30;0.30;;;;;;;;;;5006269;28;20040;-79
2021/05/14 09:51:19;;;;;;;0.20;0.20;;;;;;;;;;4995504;28;20034;-79
2021/05/14 09:53:45;;;;;;;0.20;0.20;;;;;;;;;;5011746;28;20022;-76
2021/05/14 09:56:17;;;;;;;0.22;0.22;;;;;;;;;;5025241;28;20263;-77
2021/05/14 09:58:51;;;;;;;0.20;0.20;;;;;;;;;;4993400;28;20030;-78
2021/05/14 10:01:16;;;;;;;0.20;0.20;;;;;;;;;;4989247;28;20038;-79
2021/05/14 10:03:41;;;;;;;0.20;0.20;;;;;;;;;;4993397;28;20069;-77
2021/05/14 10:06:07;;;;;;;0.43;0.30;;;;;;;;;;4992334;28;20503;-78
2021/05/14 10:08:34;;;;;;;0.30;0.30;;;;;;;;;;4990437;28;20037;-76
2021/05/14 10:11:01;;;;;;;0.20;0.20;;;;;;;;;;4994818;28;20057;-76
2021/05/14 10:13:27;;;;;;;0.20;0.20;;;;;;;;;;4992096;28;20030;-76
2021/05/14 10:15:53;;;;;;;0.20;0.20;;;;;;;;;;4995096;28;20018;-79
2021/05/14 10:18:19;;;;;;;0.30;0.30;;;;;;;;;;4995900;28;20330;-79
2021/05/14 10:20:46;;;;;;;0.20;0.20;;;;;;;;;;5002189;28;20152;-78
2021/05/14 10:23:16;;;;;;;0.20;0.20;;;;;;;;;;4999137;28;20030;-78
2021/05/14 10:25:44;;;;;;;0.30;0.30;;;;;;;;;;4998787;28;20034;-78
2021/05/14 10:28:09;;;;;;;;;;;;;;;;;;4991850;28;20065;-71
2021/05/14 10:30:35;;;;;;;0.20;0.20;;;;;;;;;;4994840;28;19943;-78
2021/05/14 10:33:00;;;;;;;0.20;0.20;;;;;;;;;;5010623;28;20049;-78
2021/05/14 10:35:26;;;;;;;0.20;0.20;;;;;;;;;;5013909;28;20030;-78
2021/05/14 10:37:52;;;;;;;0.20;0.20;;;;;;;;;;4998884;28;20026;-74
2021/05/14 10:40:38;;;;;;;0.28;0.28;;;;;;;;;;4993812;28;20129;-78
2021/05/14 10:43:18;;;;;;;0.30;0.30;;;;;;;;;;4998187;28;20052;-79
2021/05/14 10:45:46;;;;;;;0.35;0.30;;;;;;;;;;4996546;28;20045;-77
2021/05/14 10:48:23;;;;;;;0.15;0.15;;;;;;;;;;5001639;28;20022;-76
2021/05/14 10:50:52;;;;;;;0.20;0.20;;;;;;;;;;4991027;28;20084;-76
2021/05/14 10:53:17;;;;;;;0.20;0.20;;;;;;;;;;4993168;28;20030;-78
2021/05/14 10:55:46;;;;;;;0.20;0.20;;;;;;;;;;5008162;28;20072;-77
2021/05/14 10:58:31;;;;;;;0.20;0.20;;;;;;;;;;4989694;28;20351;-77
2021/05/14 11:00:56;;;;;;;0.30;0.30;;;;;;;;;;4989329;28;20120;-77
2021/05/14 11:03:21;;;;;;;0.30;0.30;;;;;;;;;;4991201;28;20030;-78
2021/05/14 11:06:07;;;;;;;0.20;0.20;;;;;;;;;;4995644;28;20018;-78
2021/05/14 11:08:35;;;;;;;0.20;0.20;;;;;;;;;;4994403;28;20022;-77
2021/05/14 11:11:12;;;;;;;0.32;0.32;;;;;;;;;;4997262;28;20022;-75
2021/05/14 11:13:47;;;;;;;0.28;0.28;;;;;;;;;;4998872;28;20018;-78
2021/05/14 11:16:32;;;;;;;0.22;0.22;;;;;;;;;;4990238;28;20038;-78
2021/05/14 11:18:58;;;;;;;0.20;0.20;;;;;;;;;;5016346;28;20039;-74
2021/05/14 11:21:43;;;;;;;0.40;0.40;;;;;;;;;;5009578;28;20244;-73
2021/05/14 11:24:08;;;;;;;0.35;0.35;;;;;;;;;;4990305;28;20484;-76
2021/05/14 11:26:33;;;;;;;0.20;0.20;;;;;;;;;;4999269;28;20034;-71
2021/05/14 11:28:59;;;;;;;0.10;0.10;;;;;;;;;;5004172;28;20042;-75
2021/05/14 11:31:24;;;;;;;0.20;0.20;;;;;;;;;;4986873;28;20050;-76
2021/05/14 11:33:51;;;;;;;0.20;0.20;;;;;;;;;;4989080;28;20342;-71
2021/05/14 11:36:17;;;;;;;0.20;0.20;;;;;;;;;;4986131;28;20046;-71
2021/05/14 11:38:46;;;;;;;0.40;0.30;;;;;;;;;;4984453;28;20493;-72
2021/05/14 11:41:14;;;;;;;0.20;0.20;;;;;;;;;;4970173;28;20467;-72
2021/05/14 11:43:40;;;;;;;0.20;0.20;;;;;;;;;;4986310;28;20046;-71
2021/05/14 11:46:08;;;;;;;0.20;0.20;;;;;;;;;;4971995;28;20047;-71
2021/05/14 11:48:33;;;;;;;0.30;0.30;;;;;;;;;;4966999;28;20129;-72
2021/05/14 11:50:59;;;;;;;0.20;0.20;;;;;;;;;;4988566;28;20125;-71
2021/05/14 11:53:25;;;;;;;0.20;0.20;;;;;;;;;;4980028;28;20504;-72
2021/05/14 11:55:53;;;;;;;0.20;0.20;;;;;;;;;;4985450;28;20456;-72
2021/05/14 11:58:19;;;;;;;0.20;0.20;;;;;;;;;;4965967;28;20034;-72
2021/05/14 12:00:45;;;;;;;0.25;0.25;;;;;;;;;;4983480;28;20133;-72
2021/05/14 12:03:11;;;;;;;0.30;0.30;;;;;;;;;;4986462;28;20054;-71
2021/05/14 12:05:38;;;;;;;0.30;0.30;;;;;;;;;;4973546;28;20045;-72
2021/05/14 12:08:19;;;;;;;0.17;0.17;;;;;;;;;;4983137;28;20042;-71
2021/05/14 12:10:44;;;;;;;0.20;0.20;;;;;;;;;;4984298;28;20042;-72
2021/05/14 12:13:11;;;;;;;0.30;0.30;;;;;;;;;;4990510;28;20520;-71
2021/05/14 12:15:38;;;;;;;0.40;0.40;;;;;;;;;;4967616;28;20919;-71
2021/05/14 12:18:03;;;;;;;0.30;0.30;;;;;;;;;;4966364;28;20031;-71
2021/05/14 12:20:33;;;;;;;0.30;0.30;;;;;;;;;;4999623;28;20049;-72
2021/05/14 12:23:00;;;;;;;0.40;0.40;;;;;;;;;;4978088;28;20267;-72
2021/05/14 12:25:26;;;;;;;0.35;0.35;;;;;;;;;;4991918;28;20125;-74
2021/05/14 12:27:52;;;;;;;0.20;0.20;;;;;;;;;;4995105;28;20061;-73
2021/05/14 12:30:17;;;;;;;0.38;0.38;;;;;;;;;;4965800;28;20501;-75
2021/05/14 12:32:56;;;;;;;0.30;0.30;;;;;;;;;;4985289;28;20045;-77
2021/05/14 12:35:22;;;;;;;0.40;0.40;;;;;;;;;;4983246;28;20121;-79
2021/05/14 12:37:54;;;;;;;0.38;0.38;;;;;;;;;;5004235;28;20104;-79
2021/05/14 12:40:37;;;;;;;0.30;0.30;;;;;;;;;;4992857;28;20035;-77
2021/05/14 12:43:06;;;;;;;0.30;0.30;;;;;;;;;;4979102;28;20049;-76
2021/05/14 12:45:33;;;;;;;2.85;1.00;;;;;;;;;;4999041;28;20034;-77
2021/05/14 12:47:59;;;;;;;0.40;0.40;;;;;;;;;;4999645;28;20654;-77
2021/05/14 12:50:28;;;;;;;0.30;0.30;;;;;;;;;;5003478;28;20101;-78
2021/05/14 12:52:53;;;;;;;0.30;0.30;;;;;;;;;;5018735;28;20034;-78
2021/05/14 12:55:20;;;;;;;0.50;0.50;;;;;;;;;;4986467;28;20042;-77
2021/05/14 12:57:57;;;;;;;0.35;0.35;;;;;;;;;;4989633;28;20042;-77
2021/05/14 13:00:25;;;;;;;0.32;0.17;;;;;;;;;;4994302;28;20508;-74
2021/05/14 13:02:54;;;;;;;0.13;0.13;;;;;;;;;;5031811;28;20125;-75
2021/05/14 13:05:31;;;;;;;1.17;0.45;;;;;;;;;;4999606;28;20053;-76
2021/05/14 13:08:04;;;;;;;0.10;0.10;;;;;;;;;;4986187;28;20534;-72
2021/05/14 13:10:33;;;;;;;0.10;0.10;;;;;;;;;;4984741;28;20037;-74
2021/05/14 13:12:58;;;;;;;0.20;0.20;;;;;;;;;;4987220;28;20041;-75
2021/05/14 13:15:23;;;;;;;0.10;0.10;;;;;;;;;;4980879;28;20030;-75
2021/05/14 13:17:49;;;;;;;0.10;0.10;;;;;;;;;;4989623;28;20046;-72
2021/05/14 13:20:14;;;;;;;0.17;0.10;;;;;;;;;;4986136;28;20034;-75
2021/05/14 13:22:39;;;;;;;0.10;0.10;;;;;;;;;;4989200;28;20044;-75
2021/05/14 13:25:05;;;;;;;0.47;0.10;;;;;;;;;;4988022;28;20046;-77
2021/05/14 13:27:30;;;;;;;0.47;0.10;;;;;;;;;;4985175;28;20030;-75
2021/05/14 13:29:55;;;;;;;0.10;0.10;;;;;;;;;;4987203;28;20034;-74
2021/05/14 13:32:20;;;;;;;0.10;0.10;;;;;;;;;;4979172;28;20043;-70
2021/05/14 13:34:46;;;;;;;0.00;0.00;;;;;;;;;;4992469;28;20439;-73
2021/05/14 13:37:11;;;;;;;0.10;0.10;;;;;;;;;;4989438;28;20500;-70
2021/05/14 13:39:36;;;;;;;1.10;0.10;;;;;;;;;;4988751;28;20689;-70
2021/05/14 13:42:01;;;;;;;0.20;0.10;;;;;;;;;;4985788;28;20519;-70
2021/05/14 13:44:27;;;;;;;0.10;0.10;;;;;;;;;;4987186;28;20030;-70
2021/05/14 13:46:52;;;;;;;0.00;0.00;;;;;;;;;;4990235;28;20034;-74
2021/05/14 13:49:19;;;;;;;0.10;0.10;;;;;;;;;;4995828;28;20062;-73
2021/05/14 13:51:44;;;;;;;0.00;0.00;;;;;;;;;;4987010;28;20141;-71
2021/05/14 13:54:09;;;;;;;0.10;0.07;;;;;;;;;;4984750;28;20253;-71
2021/05/14 13:56:34;;;;;;;0.10;0.10;;;;;;;;;;4986988;28;20037;-73
2021/05/14 13:59:00;;;;;;;0.00;0.00;;;;;;;;;;4982977;28;20040;-73
2021/05/14 14:01:25;;;;;;;0.10;0.10;;;;;;;;;;4982340;28;20759;-73
2021/05/14 14:03:50;;;;;;;0.10;0.10;;;;;;;;;;4955403;28;20039;-73
2021/05/14 14:06:15;;;;;;;0.10;0.10;;;;;;;;;;4984576;28;20038;-75
2021/05/14 14:08:41;;;;;;;0.10;0.10;;;;;;;;;;4971525;28;20133;-75
2021/05/14 14:11:08;;;;;;;0.00;0.00;;;;;;;;;;4973624;28;20038;-74
2021/05/14 14:13:33;;;;;;;0.30;0.10;;;;;;;;;;4976446;28;20050;-74
2021/05/14 14:16:01;;;;;;;0.00;0.00;;;;;;;;;;4982053;28;20054;-74
2021/05/14 14:18:26;;;;;;;0.77;0.13;;;;;;;;;;4975339;28;20045;-76
2021/05/14 14:20:51;;;;;;;0.10;0.10;;;;;;;;;;4969768;28;20038;-75
2021/05/14 14:23:16;;;;;;;0.10;0.10;;;;;;;;;;4987120;28;20048;-75
2021/05/14 14:25:42;;;;;;;0.30;0.17;;;;;;;;;;4981250;28;20514;-77
2021/05/14 14:28:07;;;;;;;0.00;0.00;;;;;;;;;;4964166;28;20468;-74
2021/05/14 14:30:34;;;;;;;0.20;0.10;;;;;;;;;;4968386;28;20054;-76
2021/05/14 14:33:00;;;;;;;0.30;0.10;;;;;;;;;;4973850;28;20054;-74
2021/05/14 14:35:25;;;;;;;0.10;0.10;;;;;;;;;;4969708;28;20046;-78
2021/05/14 14:37:50;;;;;;;0.30;0.17;;;;;;;;;;4980933;28;20053;-75
2021/05/14 14:40:15;;;;;;;0.73;0.30;;;;;;;;;;4972082;28;20037;-75
2021/05/14 14:42:41;;;;;;;0.07;0.07;;;;;;;;;;4984357;28;20069;-76